Buena Vista, CO

11:03 PM MST on December 07, 2016 (GMT -0700)
Collegiate Heights | | Change Station

Elev 7946 ft 38.83 °N, 106.12 °W | Updated 3 seconds ago

Clear
Clear
1.8 °F
Feels Like 2 °F
N
0.0
Wind Variable Wind from SSW
Gusts 0.0 mph

Today
High -- | Low -- °F
--% Chance of Precip.
Yesterday
High -- | Low -- °F
Precip. -- in
Pressure 30.21 in
Visibility 10.0 miles
Clouds Clear
Windchill 2 °F
Dew Point -14 °F
Humidity 47%
Rainfall 0.00 in
Snow Depth Not available.
7:10 AM 4:42 PM
First Quarter, 60% visible
METAR KAEJ 080555Z AUTO 07003KT 10SM CLR M18/M23 A3021 RMK AO2 T11851227 11097 21193 410441193
Pressure 30.21 in
Visibility 10.0 miles
Clouds Clear
Windchill 2 °F
Dew Point -14 °F
Humidity 47%
Rainfall 0.00 in
Snow Depth Not available.
7:10 AM 4:42 PM
First Quarter, 60% visible
METAR KAEJ 080555Z AUTO 07003KT 10SM CLR M18/M23 A3021 RMK AO2 T11851227 11097 21193 410441193

10-Day Weather Forecast

Almanac

Astronomy

Dec. 07, 2016 Rise Set
Actual Time
Civil Twilight
Nautical Twilight
Astronomical Twilight
Moon
Length of Visible Light
Length of Day
Tomorrow will be .
, % of the Moon is Illuminated

Today's Extremes

State Highs State Lows

Community

WunderPhotos

Upload Photos

1,956,259 photos uploaded!

WunderBlog® & News

Nearby

Air Quality

  Air Quality AQ Index Pollutant
Not available.

Snow Depth

Station Depth Elevation

Earthquake Activity

City Distance Mag. Time & Date
Minimum magnitude displayed is 2.5.

Coastal Water Temperatures

Place Temperature

Stations

Nearby Weather Stations

Station Location Temp. Windchill Dew Point Humidity Wind Precip. Elev Updated Type
                   

Watches & Warnings

There are currently no watches in effect.